createdAt,value
2023-01-17T00:01:34.295Z,5.10
2023-01-17T00:04:21.232Z,5.10
2023-01-17T00:07:06.822Z,5.10
2023-01-17T00:09:52.485Z,5.30
2023-01-17T00:12:21.439Z,5.40
2023-01-17T00:14:50.008Z,5.40
2023-01-17T00:17:18.453Z,5.20
2023-01-17T00:20:05.418Z,5.30
2023-01-17T00:22:52.021Z,5.30
2023-01-17T00:25:40.157Z,5.30
2023-01-17T00:28:07.842Z,5.10
2023-01-17T00:30:34.850Z,5.20
2023-01-17T00:33:02.079Z,5.10
2023-01-17T00:35:32.558Z,5.10
2023-01-17T00:38:04.643Z,5.10
2023-01-17T00:40:31.668Z,5.10
2023-01-17T00:43:17.529Z,5.20
2023-01-17T00:46:03.842Z,5.20
2023-01-17T00:48:50.535Z,5.10
2023-01-17T00:51:38.062Z,5.10
2023-01-17T00:54:23.938Z,5.10
2023-01-17T00:57:10.017Z,5.10
2023-01-17T00:59:55.942Z,5.10
2023-01-17T01:02:42.720Z,5.20
2023-01-17T01:05:29.438Z,5.20
2023-01-17T01:08:16.519Z,5.20
2023-01-17T01:11:02.403Z,5.20
2023-01-17T01:13:50.353Z,5.20
2023-01-17T01:16:36.755Z,5.30
2023-01-17T01:19:23.077Z,5.10
2023-01-17T01:22:08.684Z,5.10
2023-01-17T01:24:55.476Z,5.10
2023-01-17T01:27:41.727Z,5.10
2023-01-17T01:30:28.803Z,5.10
2023-01-17T01:33:14.291Z,5.10
2023-01-17T01:35:43.146Z,5.10
2023-01-17T01:38:11.239Z,5.10
2023-01-17T01:40:45.979Z,5.10
2023-01-17T01:43:16.322Z,5.10
2023-01-17T01:45:50.067Z,5.10
2023-01-17T01:48:42.127Z,5.20
2023-01-17T01:51:14.224Z,5.10
2023-01-17T01:53:47.047Z,5.10
2023-01-17T01:56:17.479Z,5.10
2023-01-17T01:58:49.926Z,5.20
2023-01-17T02:01:18.719Z,5.10
2023-01-17T02:03:48.403Z,5.10
2023-01-17T02:06:29.418Z,5.10
2023-01-17T02:09:04.352Z,5.20
2023-01-17T02:11:34.937Z,5.20
2023-01-17T02:14:03.371Z,5.10
2023-01-17T02:16:43.881Z,5.10
2023-01-17T02:19:44.866Z,5.10
2023-01-17T02:22:42.835Z,5.20
2023-01-17T02:25:27.940Z,5.20
2023-01-17T02:28:13.726Z,5.20
2023-01-17T02:30:47.393Z,5.20
2023-01-17T02:33:28.550Z,5.30
2023-01-17T02:36:06.568Z,5.30
2023-01-17T02:38:41.191Z,5.20
2023-01-17T02:41:14.931Z,5.30
2023-01-17T02:43:43.087Z,5.30
2023-01-17T02:46:12.735Z,5.20
2023-01-17T02:48:41.507Z,5.10
2023-01-17T02:51:33.639Z,5.20
2023-01-17T02:54:17.363Z,5.20
2023-01-17T02:56:53.476Z,5.10
2023-01-17T02:59:34.364Z,5.10
2023-01-17T03:02:13.579Z,5.20
2023-01-17T03:04:48.443Z,5.20
2023-01-17T03:07:20.739Z,5.10
2023-01-17T03:09:53.759Z,5.10
2023-01-17T03:12:22.320Z,5.10
2023-01-17T03:14:50.390Z,5.10
2023-01-17T03:17:20.196Z,5.10
2023-01-17T03:19:48.522Z,5.10
2023-01-17T03:22:16.621Z,5.10
2023-01-17T03:24:45.003Z,5.10
2023-01-17T03:27:13.079Z,5.10
2023-01-17T03:29:41.415Z,5.00
2023-01-17T03:32:09.608Z,5.00
2023-01-17T03:34:39.338Z,4.90
2023-01-17T03:37:07.460Z,5.00
2023-01-17T03:39:35.952Z,4.90
2023-01-17T03:42:04.064Z,4.90
2023-01-17T03:44:32.563Z,4.90
2023-01-17T03:47:00.744Z,4.80
2023-01-17T03:49:29.368Z,4.80
2023-01-17T03:51:58.873Z,4.70
2023-01-17T03:54:27.279Z,4.70
2023-01-17T03:56:55.796Z,4.70
2023-01-17T03:59:24.020Z,4.70
2023-01-17T04:01:52.347Z,4.60
2023-01-17T04:04:20.472Z,4.60
2023-01-17T04:06:48.823Z,4.60
2023-01-17T04:09:18.291Z,4.50
2023-01-17T04:11:51.042Z,4.50
2023-01-17T04:14:19.274Z,4.50
2023-01-17T04:16:47.962Z,4.50
2023-01-17T04:19:16.327Z,4.60
2023-01-17T04:21:44.477Z,4.70
2023-01-17T04:24:12.688Z,4.60
2023-01-17T04:26:42.126Z,4.60
2023-01-17T04:29:10.272Z,4.60
2023-01-17T04:31:38.604Z,4.50
2023-01-17T04:34:06.750Z,4.50
2023-01-17T04:36:34.838Z,4.40
2023-01-17T04:39:03.124Z,4.50
2023-01-17T04:41:31.482Z,4.60
2023-01-17T04:44:01.974Z,4.50
2023-01-17T04:46:30.507Z,4.60
2023-01-17T04:48:59.544Z,4.60
2023-01-17T04:51:27.653Z,4.60
2023-01-17T04:53:55.799Z,4.60
2023-01-17T04:56:23.948Z,4.50
2023-01-17T04:58:52.366Z,4.50
2023-01-17T05:01:21.997Z,4.50
2023-01-17T05:03:50.146Z,4.60
2023-01-17T05:06:18.306Z,4.60
2023-01-17T05:08:46.437Z,4.50
2023-01-17T05:11:14.879Z,4.60
2023-01-17T05:13:43.268Z,4.60
2023-01-17T05:16:11.755Z,4.60
2023-01-17T05:18:43.128Z,4.60
2023-01-17T05:21:11.251Z,4.60
2023-01-17T05:23:40.934Z,4.60
2023-01-17T05:26:09.445Z,4.60
2023-01-17T05:28:37.828Z,4.60
2023-01-17T05:31:06.120Z,4.70
2023-01-17T05:33:34.782Z,4.60
2023-01-17T05:36:04.715Z,4.60
2023-01-17T05:38:32.848Z,4.60
2023-01-17T05:41:01.815Z,4.60
2023-01-17T05:43:29.998Z,4.60
2023-01-17T05:45:58.449Z,4.50
2023-01-17T05:48:26.654Z,4.60
2023-01-17T05:50:54.971Z,4.60
2023-01-17T05:53:24.455Z,4.60
2023-01-17T05:55:52.576Z,4.60
2023-01-17T05:58:22.765Z,4.60
2023-01-17T06:00:50.986Z,4.60
2023-01-17T06:03:19.122Z,4.50
2023-01-17T06:05:47.956Z,4.60
2023-01-17T06:08:16.070Z,4.60
2023-01-17T06:10:45.856Z,4.50
2023-01-17T06:13:17.048Z,4.50
2023-01-17T06:15:45.189Z,4.50
2023-01-17T06:18:15.276Z,4.40
2023-01-17T06:20:43.804Z,4.50
2023-01-17T06:23:13.741Z,4.40
2023-01-17T06:25:44.393Z,4.30
2023-01-17T06:28:15.102Z,4.30
2023-01-17T06:30:44.090Z,4.30
2023-01-17T06:33:12.834Z,4.20
2023-01-17T06:35:43.155Z,4.30
2023-01-17T06:38:11.560Z,4.20
2023-01-17T06:40:40.067Z,4.20
2023-01-17T06:43:08.261Z,4.20
2023-01-17T06:45:38.215Z,4.20
2023-01-17T06:48:06.851Z,4.20
2023-01-17T06:50:35.463Z,4.10
2023-01-17T06:53:07.266Z,4.10
2023-01-17T06:55:36.205Z,4.10
2023-01-17T06:58:04.535Z,4.20
2023-01-17T07:00:35.102Z,4.10
2023-01-17T07:03:04.847Z,4.10
2023-01-17T07:05:32.927Z,4.00
2023-01-17T07:08:01.027Z,4.00
2023-01-17T07:10:29.546Z,3.80
2023-01-17T07:13:01.161Z,3.80
2023-01-17T07:15:29.699Z,3.80
2023-01-17T07:17:57.812Z,3.80
2023-01-17T07:20:27.404Z,3.70
2023-01-17T07:22:55.850Z,3.60
2023-01-17T07:25:24.000Z,3.60
2023-01-17T07:27:57.825Z,3.70
2023-01-17T07:30:27.022Z,3.70
2023-01-17T07:32:56.229Z,3.70
2023-01-17T07:35:27.473Z,3.50
2023-01-17T07:37:56.767Z,3.50
2023-01-17T07:40:25.503Z,3.50
2023-01-17T07:42:53.696Z,3.50
2023-01-17T07:45:22.013Z,3.50
2023-01-17T07:47:50.515Z,3.50
2023-01-17T07:50:18.764Z,3.50
2023-01-17T07:52:51.815Z,3.30
2023-01-17T07:55:19.928Z,3.40
2023-01-17T07:57:51.314Z,3.40
2023-01-17T08:00:20.250Z,3.40
2023-01-17T08:02:48.380Z,3.40
2023-01-17T08:05:16.879Z,3.40
2023-01-17T08:07:45.379Z,3.40
2023-01-17T08:10:18.012Z,3.40
2023-01-17T08:12:47.084Z,3.40
2023-01-17T08:15:15.538Z,3.40
2023-01-17T08:17:47.498Z,3.30
2023-01-17T08:20:16.057Z,3.30
2023-01-17T08:22:44.339Z,3.10
2023-01-17T08:25:14.215Z,3.30
2023-01-17T08:27:42.701Z,3.30
2023-01-17T08:30:11.852Z,3.30
2023-01-17T08:32:41.178Z,3.20
2023-01-17T08:35:10.131Z,3.20
2023-01-17T08:37:39.136Z,3.30
2023-01-17T08:40:08.863Z,3.30
2023-01-17T08:42:40.267Z,3.40
2023-01-17T08:45:10.394Z,3.40
2023-01-17T08:47:39.185Z,3.30
2023-01-17T08:50:08.020Z,3.40
2023-01-17T08:52:36.451Z,3.40
2023-01-17T08:55:05.932Z,3.50
2023-01-17T08:57:34.351Z,3.40
2023-01-17T09:00:04.468Z,3.50
2023-01-17T09:02:32.623Z,3.40
2023-01-17T09:05:01.313Z,3.60
2023-01-17T09:07:29.578Z,3.50
2023-01-17T09:09:57.918Z,3.50
2023-01-17T09:12:26.459Z,3.60
2023-01-17T09:14:54.578Z,3.50
2023-01-17T09:17:24.477Z,3.50
2023-01-17T09:19:53.071Z,3.60
2023-01-17T09:22:21.349Z,3.70
2023-01-17T09:24:49.665Z,3.70
2023-01-17T09:27:17.832Z,3.70
2023-01-17T09:29:45.959Z,3.70
2023-01-17T09:32:17.398Z,3.70
2023-01-17T09:34:48.487Z,3.80
2023-01-17T09:37:16.576Z,3.80
2023-01-17T09:39:44.892Z,3.70
2023-01-17T09:42:21.743Z,3.70
2023-01-17T09:44:52.719Z,3.70
2023-01-17T09:47:31.922Z,3.70
2023-01-17T09:50:15.290Z,3.80
2023-01-17T09:52:43.659Z,3.70
2023-01-17T09:55:15.574Z,3.90
2023-01-17T09:57:55.298Z,3.70
2023-01-17T10:00:37.674Z,3.90
2023-01-17T10:03:44.737Z,4.00
2023-01-17T10:06:31.358Z,4.00
2023-01-17T10:09:10.456Z,4.00
2023-01-17T10:11:54.443Z,4.10
2023-01-17T10:14:37.549Z,4.10
2023-01-17T10:17:17.439Z,4.00
2023-01-17T10:20:05.158Z,4.10
2023-01-17T10:23:04.909Z,4.10
2023-01-17T10:25:43.934Z,4.10
2023-01-17T10:28:17.583Z,4.10
2023-01-17T10:30:50.013Z,4.10
2023-01-17T10:33:21.977Z,4.10
2023-01-17T10:35:57.471Z,4.20
2023-01-17T10:38:33.915Z,4.10
2023-01-17T10:41:07.293Z,4.40
2023-01-17T10:43:45.559Z,4.70
2023-01-17T10:46:17.942Z,4.80
2023-01-17T10:48:49.848Z,4.80
2023-01-17T10:51:49.952Z,4.90
2023-01-17T10:54:33.141Z,5.10
2023-01-17T10:57:01.604Z,5.30
2023-01-17T10:59:32.371Z,5.40
2023-01-17T11:02:06.788Z,5.50
2023-01-17T11:04:37.022Z,5.40
2023-01-17T11:07:16.655Z,5.50
2023-01-17T11:09:47.978Z,5.70
2023-01-17T11:12:21.029Z,5.70
2023-01-17T11:15:02.535Z,5.70
2023-01-17T11:17:32.174Z,5.70
2023-01-17T11:20:17.430Z,5.80
2023-01-17T11:22:50.575Z,6.10
2023-01-17T11:25:24.575Z,5.80
2023-01-17T11:28:02.089Z,6.00
2023-01-17T11:30:34.129Z,6.10
2023-01-17T11:33:06.205Z,6.00
2023-01-17T11:35:36.671Z,6.10
2023-01-17T11:38:11.977Z,6.80
2023-01-17T11:40:43.389Z,6.70
2023-01-17T11:43:24.223Z,6.80
2023-01-17T11:46:17.824Z,6.70
2023-01-17T11:48:50.876Z,6.70
2023-01-17T11:51:23.566Z,7.10
2023-01-17T11:53:52.322Z,6.70
2023-01-17T11:56:30.700Z,6.80
2023-01-17T11:59:28.496Z,6.70
2023-01-17T12:02:20.652Z,6.80
2023-01-17T12:04:55.248Z,6.50
2023-01-17T12:07:32.327Z,6.60
2023-01-17T12:10:06.415Z,6.40
2023-01-17T12:13:09.768Z,6.50
2023-01-17T12:15:51.373Z,6.30
2023-01-17T12:18:37.297Z,6.50
2023-01-17T12:21:18.317Z,6.60
2023-01-17T12:23:58.821Z,6.50
2023-01-17T12:26:37.795Z,6.30
2023-01-17T12:29:47.274Z,6.30
2023-01-17T12:32:45.812Z,6.70
2023-01-17T12:35:18.963Z,6.60
2023-01-17T12:38:03.798Z,6.60
2023-01-17T12:40:36.682Z,6.70
2023-01-17T12:43:11.314Z,6.80
2023-01-17T12:45:45.061Z,7.00
2023-01-17T12:48:17.104Z,6.80
2023-01-17T12:50:52.642Z,6.90
2023-01-17T12:53:27.960Z,6.90
2023-01-17T12:56:01.779Z,6.90
2023-01-17T12:58:46.061Z,7.00
2023-01-17T13:01:26.479Z,7.10
2023-01-17T13:04:03.728Z,7.10
2023-01-17T13:06:39.244Z,7.00
2023-01-17T13:09:10.207Z,7.20
2023-01-17T13:11:44.200Z,7.20
2023-01-17T13:14:12.818Z,7.10
2023-01-17T13:16:46.461Z,7.50
2023-01-17T13:19:22.705Z,7.50
2023-01-17T13:21:51.704Z,7.20
2023-01-17T13:24:37.701Z,7.50
2023-01-17T13:27:36.967Z,7.20
2023-01-17T13:30:31.842Z,7.30
2023-01-17T13:33:19.472Z,7.20
2023-01-17T13:35:58.305Z,7.10
2023-01-17T13:39:04.134Z,6.90
2023-01-17T13:41:44.904Z,7.10
2023-01-17T13:44:24.840Z,6.80
2023-01-17T13:46:57.787Z,7.10
2023-01-17T13:49:36.737Z,6.90
2023-01-17T13:52:10.943Z,7.10
2023-01-17T13:54:46.894Z,7.20
2023-01-17T13:57:42.198Z,7.30
2023-01-17T14:00:59.319Z,7.20
2023-01-17T14:04:05.023Z,7.20
2023-01-17T14:06:40.923Z,7.10
2023-01-17T14:09:19.798Z,7.10
2023-01-17T14:11:58.497Z,6.70
2023-01-17T14:14:46.464Z,6.90
2023-01-17T14:17:56.920Z,6.90
2023-01-17T14:21:03.679Z,7.00
2023-01-17T14:23:57.250Z,6.50
2023-01-17T14:26:41.224Z,6.80
2023-01-17T14:29:46.671Z,6.60
2023-01-17T14:32:16.785Z,6.60
2023-01-17T14:34:46.645Z,6.40
2023-01-17T14:37:23.507Z,6.40
2023-01-17T14:39:53.391Z,6.40
2023-01-17T14:42:24.555Z,6.20
2023-01-17T14:44:58.955Z,6.20
2023-01-17T14:47:31.231Z,5.90
2023-01-17T14:50:13.399Z,6.10
2023-01-17T14:52:41.491Z,6.00
2023-01-17T14:55:17.715Z,6.10
2023-01-17T14:57:56.000Z,6.00
2023-01-17T15:00:29.412Z,5.80
2023-01-17T15:03:00.094Z,5.80
2023-01-17T15:05:30.513Z,5.60
2023-01-17T15:08:00.241Z,5.40
2023-01-17T15:10:32.684Z,5.70
2023-01-17T15:13:09.079Z,5.70
2023-01-17T15:15:40.219Z,5.30
2023-01-17T15:18:26.210Z,5.40
2023-01-17T15:21:00.187Z,5.20
2023-01-17T15:23:33.782Z,5.30
2023-01-17T15:26:05.550Z,5.30
2023-01-17T15:28:35.411Z,5.40
2023-01-17T15:31:14.371Z,5.40
2023-01-17T15:33:45.474Z,5.20
2023-01-17T15:36:24.464Z,5.20
2023-01-17T15:38:57.979Z,5.00
2023-01-17T15:41:30.890Z,4.90
2023-01-17T15:43:59.790Z,4.60
2023-01-17T15:46:34.046Z,4.80
2023-01-17T15:49:24.032Z,4.90
2023-01-17T15:51:54.448Z,4.80
2023-01-17T15:54:44.744Z,4.70
2023-01-17T15:57:24.874Z,4.70
2023-01-17T15:59:55.837Z,4.60
2023-01-17T16:02:37.372Z,4.60
2023-01-17T16:05:34.598Z,4.60
2023-01-17T16:08:29.335Z,4.60
2023-01-17T16:11:02.502Z,4.50
2023-01-17T16:13:34.490Z,4.40
2023-01-17T16:16:18.114Z,4.50
2023-01-17T16:18:47.830Z,4.30
2023-01-17T16:21:24.451Z,4.30
2023-01-17T16:23:53.162Z,4.20
2023-01-17T16:26:21.507Z,4.30
2023-01-17T16:28:51.618Z,4.10
2023-01-17T16:31:20.572Z,4.10
2023-01-17T16:33:51.299Z,4.20
2023-01-17T16:36:21.254Z,4.20
2023-01-17T16:38:52.303Z,4.10
2023-01-17T16:41:21.390Z,4.10
2023-01-17T16:43:59.131Z,4.00
2023-01-17T16:46:27.690Z,3.90
2023-01-17T16:48:56.325Z,3.80
2023-01-17T16:51:24.467Z,3.90
2023-01-17T16:53:52.681Z,3.80
2023-01-17T16:56:21.215Z,3.60
2023-01-17T16:58:49.312Z,3.60
2023-01-17T17:01:21.429Z,3.60
2023-01-17T17:03:50.303Z,3.50
2023-01-17T17:06:18.768Z,3.30
2023-01-17T17:08:47.888Z,3.30
2023-01-17T17:11:17.767Z,2.80
2023-01-17T17:13:47.871Z,2.70
2023-01-17T17:16:19.385Z,2.80
2023-01-17T17:18:54.783Z,3.00
2023-01-17T17:21:23.092Z,3.00
2023-01-17T17:23:56.770Z,3.00
2023-01-17T17:26:26.796Z,2.80
2023-01-17T17:28:56.276Z,2.40
2023-01-17T17:31:26.235Z,2.30
2023-01-17T17:33:54.514Z,2.60
2023-01-17T17:36:22.781Z,2.70
2023-01-17T17:38:54.605Z,2.80
2023-01-17T17:41:25.099Z,2.90
2023-01-17T17:43:53.680Z,2.80
2023-01-17T17:46:23.116Z,2.70
2023-01-17T17:48:52.795Z,2.70
2023-01-17T17:51:23.953Z,2.70
2023-01-17T17:53:52.719Z,2.70
2023-01-17T17:56:21.415Z,2.70
2023-01-17T17:58:50.143Z,2.60
2023-01-17T18:01:18.777Z,2.50
2023-01-17T18:03:47.002Z,2.50
2023-01-17T18:06:17.450Z,2.40
2023-01-17T18:08:46.145Z,2.40
2023-01-17T18:11:18.569Z,2.40
2023-01-17T18:13:50.441Z,2.40
2023-01-17T18:16:20.974Z,2.40
2023-01-17T18:18:50.961Z,2.50
2023-01-17T18:21:23.809Z,2.50
2023-01-17T18:23:54.649Z,2.50
2023-01-17T18:26:24.850Z,2.40
2023-01-17T18:28:53.961Z,2.40
2023-01-17T18:31:24.574Z,2.40
2023-01-17T18:33:54.105Z,2.40
2023-01-17T18:36:25.072Z,2.30
2023-01-17T18:38:53.542Z,2.30
2023-01-17T18:41:23.464Z,2.30
2023-01-17T18:43:51.957Z,2.10
2023-01-17T18:46:21.712Z,2.00
2023-01-17T18:48:50.071Z,2.00
2023-01-17T18:51:20.456Z,1.90
2023-01-17T18:53:50.092Z,1.70
2023-01-17T18:56:21.080Z,1.60
2023-01-17T18:58:50.875Z,1.50
2023-01-17T19:01:21.158Z,1.30
2023-01-17T19:03:51.226Z,1.30
2023-01-17T19:06:21.258Z,1.00
2023-01-17T19:08:52.204Z,1.00
2023-01-17T19:11:21.863Z,1.10
2023-01-17T19:13:52.616Z,1.30
2023-01-17T19:16:24.398Z,1.40
2023-01-17T19:18:52.896Z,1.50
2023-01-17T19:21:22.884Z,1.50
2023-01-17T19:23:53.113Z,1.50
2023-01-17T19:26:23.195Z,1.50
2023-01-17T19:28:51.872Z,1.10
2023-01-17T19:31:22.144Z,0.80
2023-01-17T19:33:53.871Z,0.80
2023-01-17T19:36:24.412Z,0.90
2023-01-17T19:39:03.960Z,0.90
2023-01-17T19:41:34.423Z,1.00
2023-01-17T19:44:05.446Z,1.10
2023-01-17T19:46:35.000Z,1.20
2023-01-17T19:49:04.004Z,1.20
2023-01-17T19:51:32.360Z,1.20
2023-01-17T19:54:04.085Z,1.10
2023-01-17T19:56:32.472Z,1.20
2023-01-17T19:59:02.244Z,1.10
2023-01-17T20:01:32.392Z,1.10
2023-01-17T20:04:02.634Z,1.10
2023-01-17T20:06:34.061Z,1.00
2023-01-17T20:09:06.503Z,1.00
2023-01-17T20:11:34.800Z,1.00
2023-01-17T20:14:03.255Z,1.00
2023-01-17T20:16:32.832Z,1.00
2023-01-17T20:19:02.814Z,0.90
2023-01-17T20:21:34.619Z,0.50
2023-01-17T20:24:04.440Z,0.40
2023-01-17T20:26:37.565Z,0.50
2023-01-17T20:29:10.696Z,0.70
2023-01-17T20:31:40.414Z,0.70
2023-01-17T20:34:10.798Z,0.80
2023-01-17T20:36:39.992Z,0.70
2023-01-17T20:39:11.463Z,0.70
2023-01-17T20:41:41.278Z,0.70
2023-01-17T20:44:12.368Z,0.70
2023-01-17T20:46:41.769Z,0.70
2023-01-17T20:49:13.458Z,0.70
2023-01-17T20:51:42.524Z,0.70
2023-01-17T20:54:14.549Z,0.90
2023-01-17T20:56:43.377Z,0.80
2023-01-17T20:59:14.700Z,0.80
2023-01-17T21:01:44.348Z,0.80
2023-01-17T21:04:13.176Z,0.70
2023-01-17T21:06:42.679Z,0.70
2023-01-17T21:09:15.090Z,0.80
2023-01-17T21:11:43.631Z,0.60
2023-01-17T21:14:12.288Z,0.60
2023-01-17T21:16:40.520Z,0.60
2023-01-17T21:19:12.009Z,0.60
2023-01-17T21:21:40.982Z,0.60
2023-01-17T21:24:09.859Z,0.50
2023-01-17T21:26:43.373Z,0.50
2023-01-17T21:29:12.344Z,0.50
2023-01-17T21:31:42.963Z,0.50
2023-01-17T21:34:13.636Z,0.10
2023-01-17T21:36:43.620Z,-0.10
2023-01-17T21:39:15.739Z,-0.10
2023-01-17T21:41:48.157Z,0.00
2023-01-17T21:44:19.451Z,0.10
2023-01-17T21:46:48.759Z,0.10
2023-01-17T21:49:17.296Z,0.00
2023-01-17T21:51:59.805Z,0.00
2023-01-17T21:54:47.385Z,0.10
2023-01-17T21:57:35.841Z,0.10
2023-01-17T22:00:06.346Z,0.30
2023-01-17T22:02:34.669Z,0.30
2023-01-17T22:05:02.952Z,0.30
2023-01-17T22:07:31.169Z,0.30
2023-01-17T22:09:59.471Z,0.20
2023-01-17T22:12:29.074Z,0.30
2023-01-17T22:14:57.502Z,0.30
2023-01-17T22:17:25.882Z,0.30
2023-01-17T22:19:54.056Z,0.20
2023-01-17T22:22:22.222Z,0.20
2023-01-17T22:24:50.387Z,0.10
2023-01-17T22:27:19.961Z,0.00
2023-01-17T22:29:49.469Z,0.00
2023-01-17T22:32:17.672Z,0.10
2023-01-17T22:34:45.879Z,0.10
2023-01-17T22:37:14.597Z,0.10
2023-01-17T22:39:43.077Z,0.20
2023-01-17T22:42:13.333Z,0.00
2023-01-17T22:44:41.808Z,-0.30
2023-01-17T22:47:11.448Z,-0.20
2023-01-17T22:49:39.942Z,-0.10
2023-01-17T22:52:08.031Z,0.00
2023-01-17T22:54:36.175Z,0.10
2023-01-17T22:57:04.357Z,0.20
2023-01-17T22:59:33.897Z,0.30
2023-01-17T23:02:02.060Z,0.20
2023-01-17T23:04:31.762Z,0.30
2023-01-17T23:06:59.893Z,0.40
2023-01-17T23:09:28.319Z,0.20
2023-01-17T23:11:56.685Z,0.10
2023-01-17T23:14:26.903Z,0.00
2023-01-17T23:17:14.217Z,0.00
2023-01-17T23:19:45.353Z,-0.10
2023-01-17T23:22:19.182Z,0.00
2023-01-17T23:24:50.990Z,-0.20
2023-01-17T23:27:39.264Z,-0.10
2023-01-17T23:30:10.816Z,-0.20
2023-01-17T23:32:39.254Z,-0.20
2023-01-17T23:35:09.178Z,-0.10
2023-01-17T23:37:55.092Z,-0.10
2023-01-17T23:40:23.337Z,-0.10
2023-01-17T23:43:08.964Z,-0.10
2023-01-17T23:45:38.768Z,0.00
2023-01-17T23:48:09.643Z,0.00
2023-01-17T23:50:40.665Z,0.10
2023-01-17T23:53:09.986Z,0.10
2023-01-17T23:55:39.628Z,0.00
2023-01-17T23:58:09.552Z,-0.50
